createdAt,value
2018-02-06T00:00:43.375Z,0.30
2018-02-06T00:03:17.391Z,0.30
2018-02-06T00:05:52.133Z,0.20
2018-02-06T00:08:26.036Z,0.20
2018-02-06T00:10:59.892Z,0.10
2018-02-06T00:13:34.474Z,0.20
2018-02-06T00:16:08.592Z,0.10
2018-02-06T00:18:42.386Z,0.20
2018-02-06T00:21:16.569Z,0.30
2018-02-06T00:23:51.221Z,0.40
2018-02-06T00:26:25.216Z,0.40
2018-02-06T00:28:59.355Z,0.40
2018-02-06T00:31:33.155Z,0.30
2018-02-06T00:34:07.763Z,0.20
2018-02-06T00:36:43.200Z,0.20
2018-02-06T00:39:17.926Z,0.30
2018-02-06T00:41:52.861Z,0.20
2018-02-06T00:44:27.345Z,0.10
2018-02-06T00:47:01.310Z,0.10
2018-02-06T00:49:36.136Z,-0.10
2018-02-06T00:52:09.879Z,0.00
2018-02-06T00:54:44.637Z,0.00
2018-02-06T00:57:19.071Z,0.00
2018-02-06T00:59:53.077Z,-0.10
2018-02-06T01:02:27.187Z,-0.20
2018-02-06T01:05:01.100Z,-0.30
2018-02-06T01:07:35.231Z,-0.20
2018-02-06T01:10:09.328Z,-0.20
2018-02-06T01:12:43.620Z,-0.10
2018-02-06T01:15:18.265Z,-0.20
2018-02-06T01:17:53.265Z,-0.20
2018-02-06T01:20:27.300Z,-0.20
2018-02-06T01:23:02.209Z,-0.10
2018-02-06T01:25:36.776Z,-0.20
2018-02-06T01:28:10.627Z,-0.20
2018-02-06T01:30:44.790Z,-0.10
2018-02-06T01:33:19.601Z,-0.10
2018-02-06T01:35:54.016Z,-0.10
2018-02-06T01:38:27.927Z,0.00
2018-02-06T01:41:02.453Z,0.00
2018-02-06T01:43:36.993Z,0.00
2018-02-06T01:46:11.597Z,-0.10
2018-02-06T01:48:45.689Z,-0.10
2018-02-06T01:51:19.513Z,-0.10
2018-02-06T01:53:53.438Z,-0.20
2018-02-06T01:56:28.447Z,-0.10
2018-02-06T01:59:02.512Z,-0.20
2018-02-06T02:01:37.473Z,-0.20
2018-02-06T02:04:11.177Z,-0.20
2018-02-06T02:06:45.227Z,-0.30
2018-02-06T02:09:19.822Z,-0.10
2018-02-06T02:11:54.477Z,-0.20
2018-02-06T02:14:28.275Z,-0.30
2018-02-06T02:17:04.004Z,-0.40
2018-02-06T02:19:38.017Z,-0.40
2018-02-06T02:22:12.366Z,-0.50
2018-02-06T02:24:46.652Z,-0.50
2018-02-06T02:27:20.515Z,-0.60
2018-02-06T02:29:54.354Z,-0.60
2018-02-06T02:32:28.230Z,-0.70
2018-02-06T02:35:02.246Z,-0.80
2018-02-06T02:37:36.811Z,-0.90
2018-02-06T02:40:11.251Z,-1.10
2018-02-06T04:38:26.055Z,-0.90
2018-02-06T04:40:59.899Z,-0.90
2018-02-06T04:43:33.790Z,-0.90
2018-02-06T04:46:08.634Z,-0.80
2018-02-06T04:48:42.446Z,-0.80
2018-02-06T04:51:17.089Z,-0.80
2018-02-06T04:53:50.863Z,-0.80
2018-02-06T04:56:24.977Z,-0.80
2018-02-06T04:58:58.907Z,-0.80
2018-02-06T05:01:33.008Z,-0.60
2018-02-06T05:04:07.343Z,-0.60
2018-02-06T05:06:41.846Z,-0.50
2018-02-06T05:09:16.030Z,-0.60
2018-02-06T05:11:50.473Z,-0.60
2018-02-06T05:14:25.402Z,-0.60
2018-02-06T05:16:59.328Z,-0.70
2018-02-06T05:19:33.957Z,-0.70
2018-02-06T05:22:08.167Z,-0.70
2018-02-06T05:24:42.086Z,-0.60
2018-02-06T05:27:16.360Z,-0.60
2018-02-06T05:29:50.183Z,-0.60
2018-02-06T05:32:24.554Z,-0.50
2018-02-06T05:35:00.045Z,-0.60
2018-02-06T05:37:35.437Z,-0.70
2018-02-06T05:40:09.438Z,-0.70
2018-02-06T05:42:43.309Z,-0.70
2018-02-06T05:45:17.443Z,-0.70
2018-02-06T05:47:51.102Z,-0.70
2018-02-06T05:50:25.380Z,-0.60
2018-02-06T05:53:00.116Z,-0.70
2018-02-06T05:55:34.924Z,-0.70
2018-02-06T05:58:08.663Z,-0.70
2018-02-06T06:00:42.331Z,-0.70
2018-02-06T06:03:16.039Z,-0.60
2018-02-06T06:05:49.799Z,-0.70
2018-02-06T06:08:23.909Z,-0.70
2018-02-06T06:10:58.340Z,-0.60
2018-02-06T06:13:32.427Z,-0.60
2018-02-06T06:16:06.558Z,-0.60
2018-02-06T06:18:40.346Z,-0.60
2018-02-06T06:21:14.287Z,-0.60
2018-02-06T06:23:48.681Z,-0.60
2018-02-06T06:26:27.536Z,-0.60
2018-02-06T06:29:01.300Z,-0.60
2018-02-06T06:31:35.218Z,-0.60
2018-02-06T06:34:08.921Z,-0.60
2018-02-06T06:36:43.349Z,-0.60
2018-02-06T06:39:17.246Z,-0.60
2018-02-06T06:41:51.000Z,-0.60
2018-02-06T06:44:24.759Z,-0.60
2018-02-06T06:46:58.659Z,-0.60
2018-02-06T06:49:32.890Z,-0.60
2018-02-06T06:52:08.031Z,-0.40
2018-02-06T06:54:42.503Z,-0.40
2018-02-06T06:57:17.256Z,-0.50
2018-02-06T06:59:52.039Z,-0.50
2018-02-06T07:02:26.214Z,-0.50
2018-02-06T07:04:59.895Z,-0.50
2018-02-06T07:07:34.091Z,-0.50
2018-02-06T07:10:07.871Z,-0.50
2018-02-06T07:12:42.149Z,-0.60
2018-02-06T07:15:16.448Z,-0.50
2018-02-06T07:17:50.254Z,-0.50
2018-02-06T07:20:27.344Z,-0.40
2018-02-06T07:23:01.187Z,-0.50
2018-02-06T07:25:34.982Z,-0.50
2018-02-06T07:28:08.849Z,-0.40
2018-02-06T07:30:42.970Z,-0.30
2018-02-06T07:33:16.929Z,-0.20
2018-02-06T07:35:51.594Z,-0.10
2018-02-06T07:38:26.901Z,0.00
2018-02-06T07:41:00.510Z,0.00
2018-02-06T07:43:35.401Z,0.10
2018-02-06T07:46:09.067Z,0.20
2018-02-06T07:48:44.210Z,0.20
2018-02-06T07:51:18.108Z,0.20
2018-02-06T07:53:51.736Z,0.30
2018-02-06T07:56:25.961Z,0.30
2018-02-06T07:59:00.730Z,0.40
2018-02-06T08:01:35.701Z,0.40
2018-02-06T08:04:09.803Z,0.40
2018-02-06T08:06:44.884Z,0.60
2018-02-06T08:09:19.525Z,0.50
2018-02-06T08:11:53.563Z,0.50
2018-02-06T08:14:27.774Z,0.60
2018-02-06T08:17:01.770Z,0.60
2018-02-06T08:19:35.837Z,0.70
2018-02-06T08:22:10.447Z,0.80
2018-02-06T08:24:43.997Z,0.80
2018-02-06T08:27:17.604Z,0.80
2018-02-06T08:29:51.360Z,0.70
2018-02-06T08:32:26.459Z,0.90
2018-02-06T08:35:00.366Z,0.90
2018-02-06T08:37:34.154Z,1.00
2018-02-06T08:40:07.866Z,0.90
2018-02-06T08:42:41.764Z,0.90
2018-02-06T08:45:15.783Z,1.00
2018-02-06T08:47:49.487Z,1.00
2018-02-06T08:50:23.806Z,1.10
2018-02-06T08:52:57.708Z,1.30
2018-02-06T08:55:31.445Z,1.40
2018-02-06T08:58:06.417Z,2.00
2018-02-06T09:00:40.264Z,2.00
2018-02-06T09:03:14.995Z,3.60
2018-02-06T09:05:48.893Z,3.60
2018-02-06T09:08:22.572Z,4.20
2018-02-06T09:10:56.261Z,4.30
2018-02-06T09:13:30.174Z,4.40
2018-02-06T09:16:04.170Z,4.60
2018-02-06T09:18:38.626Z,4.90
2018-02-06T09:21:13.227Z,4.60
2018-02-06T09:23:47.359Z,4.50
2018-02-06T09:26:22.217Z,4.60
2018-02-06T09:28:56.809Z,5.00
2018-02-06T09:31:31.239Z,5.30
2018-02-06T09:34:05.810Z,5.40
2018-02-06T09:36:40.299Z,5.80
2018-02-06T09:39:17.455Z,5.80
2018-02-06T09:41:51.427Z,6.40
2018-02-06T09:44:25.176Z,6.80
2018-02-06T09:46:59.089Z,6.40
2018-02-06T09:49:33.327Z,6.30
2018-02-06T09:52:07.974Z,6.60
2018-02-06T09:54:41.733Z,6.60
2018-02-06T09:57:16.052Z,6.90
2018-02-06T09:59:50.016Z,7.40
2018-02-06T10:02:23.621Z,7.10
2018-02-06T10:04:58.085Z,7.90
2018-02-06T10:07:32.859Z,7.90
2018-02-06T10:10:09.179Z,7.90
2018-02-06T10:12:43.992Z,8.10
2018-02-06T10:15:18.191Z,8.10
2018-02-06T10:17:52.618Z,8.70
2018-02-06T10:20:27.065Z,9.00
2018-02-06T10:23:01.166Z,8.90
2018-02-06T10:25:35.868Z,8.10
2018-02-06T10:28:10.536Z,8.40
2018-02-06T10:30:44.518Z,8.30
2018-02-06T10:33:18.923Z,7.90
2018-02-06T10:35:53.027Z,7.90
2018-02-06T10:38:27.869Z,7.40
2018-02-06T10:41:01.867Z,7.30
2018-02-06T10:43:36.391Z,7.30
2018-02-06T10:46:10.964Z,7.50
2018-02-06T10:48:45.236Z,7.50
2018-02-06T10:51:19.826Z,7.80
2018-02-06T10:53:53.464Z,7.70
2018-02-06T10:56:27.376Z,7.70
2018-02-06T10:59:01.987Z,8.20
2018-02-06T11:01:36.713Z,8.20
2018-02-06T11:04:10.893Z,8.50
2018-02-06T11:06:46.394Z,8.10
2018-02-06T11:09:21.160Z,7.80
2018-02-06T11:11:55.384Z,7.80
2018-02-06T11:14:29.442Z,7.50
2018-02-06T11:17:03.785Z,7.30
2018-02-06T11:19:38.511Z,6.90
2018-02-06T11:22:13.762Z,6.90
2018-02-06T11:24:47.822Z,6.90
2018-02-06T11:27:22.435Z,6.40
2018-02-06T11:29:57.223Z,6.10
2018-02-06T11:32:31.069Z,6.10
2018-02-06T11:35:06.514Z,6.20
2018-02-06T11:37:40.943Z,6.30
2018-02-06T11:40:15.646Z,6.60
2018-02-06T11:42:50.098Z,6.90
2018-02-06T11:45:24.288Z,6.90
2018-02-06T11:47:59.247Z,7.20
2018-02-06T11:50:34.235Z,7.30
2018-02-06T11:53:08.077Z,7.30
2018-02-06T11:55:42.098Z,7.30
2018-02-06T11:58:17.207Z,7.60
2018-02-06T12:00:51.839Z,7.80
2018-02-06T12:03:26.779Z,7.70
2018-02-06T12:06:01.377Z,7.60
2018-02-06T12:08:35.917Z,7.30
2018-02-06T12:11:10.655Z,7.30
2018-02-06T12:13:44.538Z,7.30
2018-02-06T12:16:19.074Z,7.40
2018-02-06T12:18:53.319Z,7.40
2018-02-06T12:21:28.101Z,8.20
2018-02-06T12:24:02.163Z,8.20
2018-02-06T12:26:37.246Z,8.90
2018-02-06T12:29:11.421Z,8.90
2018-02-06T12:31:45.401Z,8.90
2018-02-06T12:34:20.285Z,8.90
2018-02-06T12:36:54.119Z,8.80
2018-02-06T12:39:29.032Z,9.80
2018-02-06T12:42:04.068Z,9.90
2018-02-06T12:44:38.378Z,10.00
2018-02-06T12:47:12.910Z,9.30
2018-02-06T12:49:47.524Z,9.00
2018-02-06T12:52:21.966Z,9.20
2018-02-06T12:54:57.035Z,9.20
2018-02-06T12:57:31.824Z,9.60
2018-02-06T13:00:06.855Z,9.30
2018-02-06T13:02:40.530Z,9.30
2018-02-06T13:05:14.882Z,9.90
2018-02-06T13:07:48.873Z,9.90
2018-02-06T13:10:23.973Z,9.70
2018-02-06T13:12:58.002Z,9.80
2018-02-06T13:15:32.326Z,9.80
2018-02-06T13:18:07.167Z,10.00
2018-02-06T13:20:41.596Z,10.20
2018-02-06T13:23:15.692Z,10.20
2018-02-06T13:25:50.315Z,10.10
2018-02-06T13:28:24.368Z,10.10
2018-02-06T13:30:58.157Z,9.70
2018-02-06T13:33:31.846Z,9.60
2018-02-06T13:36:06.979Z,9.70
2018-02-06T13:38:41.939Z,9.90
2018-02-06T13:41:16.206Z,9.90
2018-02-06T13:43:50.429Z,9.90
2018-02-06T13:46:24.165Z,10.30
2018-02-06T13:48:58.831Z,10.50
2018-02-06T13:51:32.377Z,10.50
2018-02-06T13:54:05.981Z,10.70
2018-02-06T13:56:39.834Z,10.40
2018-02-06T13:59:14.174Z,10.00
2018-02-06T14:01:48.791Z,9.90
2018-02-06T14:04:22.721Z,9.90
2018-02-06T14:06:56.698Z,9.70
2018-02-06T14:09:30.370Z,10.10
2018-02-06T14:12:04.324Z,10.70
2018-02-06T14:14:38.436Z,10.90
2018-02-06T14:17:13.127Z,11.10
2018-02-06T14:19:46.682Z,11.00
2018-02-06T14:22:21.187Z,11.60
2018-02-06T14:24:55.929Z,11.80
2018-02-06T14:27:30.120Z,11.80
2018-02-06T14:30:05.721Z,12.00
2018-02-06T14:32:39.465Z,12.60
2018-02-06T14:35:14.429Z,12.50
2018-02-06T14:37:50.960Z,12.50
2018-02-06T14:40:25.811Z,11.80
2018-02-06T14:43:00.459Z,11.80
2018-02-06T14:45:34.908Z,12.70
2018-02-06T14:48:08.743Z,12.70
2018-02-06T14:50:43.446Z,12.40
2018-02-06T14:53:18.004Z,13.00
2018-02-06T14:55:51.908Z,12.90
2018-02-06T14:58:27.200Z,12.70
2018-02-06T15:01:01.979Z,12.10
2018-02-06T15:03:37.009Z,12.30
2018-02-06T15:06:11.582Z,12.30
2018-02-06T15:08:46.255Z,12.20
2018-02-06T15:11:20.171Z,12.10
2018-02-06T15:13:54.158Z,11.60
2018-02-06T15:16:27.726Z,11.20
2018-02-06T15:19:01.568Z,10.80
2018-02-06T15:21:36.143Z,10.80
2018-02-06T15:24:09.640Z,10.80
2018-02-06T15:26:44.305Z,10.70
2018-02-06T15:29:18.094Z,10.70
2018-02-06T15:31:53.037Z,9.10
2018-02-06T15:34:27.085Z,9.00
2018-02-06T15:37:02.585Z,8.30
2018-02-06T15:39:37.232Z,8.20
2018-02-06T15:42:12.041Z,7.50
2018-02-06T15:44:46.253Z,7.50
2018-02-06T15:47:20.887Z,6.50
2018-02-06T15:49:55.931Z,6.00
2018-02-06T15:52:29.642Z,6.00
2018-02-06T15:55:03.904Z,5.80
2018-02-06T15:57:38.477Z,5.40
2018-02-06T16:00:13.767Z,5.00
2018-02-06T16:02:48.455Z,4.70
2018-02-06T16:05:22.343Z,4.70
2018-02-06T16:07:56.624Z,4.60
2018-02-06T16:10:30.568Z,4.40
2018-02-06T16:13:04.610Z,4.40
2018-02-06T16:15:38.752Z,4.20
2018-02-06T16:18:13.265Z,4.00
2018-02-06T16:20:48.710Z,3.90
2018-02-06T16:23:22.745Z,3.90
2018-02-06T16:25:56.873Z,3.80
2018-02-06T16:28:30.967Z,3.60
2018-02-06T16:31:05.493Z,3.30
2018-02-06T16:33:40.265Z,3.10
2018-02-06T16:36:13.758Z,3.00
2018-02-06T16:38:48.069Z,2.90
2018-02-06T16:41:22.479Z,2.80
2018-02-06T16:43:56.926Z,2.70
2018-02-06T16:46:32.360Z,2.60
2018-02-06T16:49:06.320Z,2.60
2018-02-06T16:51:40.474Z,2.60
2018-02-06T16:54:14.194Z,2.40
2018-02-06T16:56:47.968Z,2.40
2018-02-06T16:59:21.741Z,2.30
2018-02-06T17:01:55.506Z,2.20
2018-02-06T17:04:30.030Z,2.00
2018-02-06T17:07:04.859Z,2.00
2018-02-06T17:09:38.562Z,2.00
2018-02-06T17:12:12.609Z,2.00
2018-02-06T17:14:46.564Z,1.80
2018-02-06T17:17:21.053Z,1.70
2018-02-06T17:19:56.646Z,1.70
2018-02-06T17:22:30.959Z,1.60
2018-02-06T17:25:06.220Z,1.50
2018-02-06T17:27:40.094Z,1.50
2018-02-06T17:30:14.769Z,1.40
2018-02-06T17:32:49.210Z,1.40
2018-02-06T17:35:24.545Z,1.40
2018-02-06T17:37:59.256Z,1.40
2018-02-06T17:40:33.298Z,1.40
2018-02-06T17:43:08.180Z,1.10
2018-02-06T17:45:42.101Z,1.10
2018-02-06T17:48:16.239Z,1.10
2018-02-06T17:50:50.097Z,1.10
2018-02-06T17:53:23.833Z,1.00
2018-02-06T17:55:58.470Z,0.90
2018-02-06T17:58:33.609Z,0.90
2018-02-06T18:01:07.710Z,0.90
2018-02-06T18:03:42.557Z,1.00
2018-02-06T18:06:16.572Z,0.90
2018-02-06T18:08:51.062Z,0.90
2018-02-06T18:11:27.027Z,0.80
2018-02-06T18:14:02.740Z,0.80
2018-02-06T18:16:36.999Z,0.80
2018-02-06T18:19:12.334Z,0.90
2018-02-06T18:24:28.021Z,1.00
2018-02-06T18:27:01.978Z,0.90
2018-02-06T18:29:37.581Z,0.80
2018-02-06T18:32:11.579Z,0.80
2018-02-06T18:34:45.619Z,0.90
2018-02-06T18:37:19.437Z,0.80
2018-02-06T18:39:54.138Z,0.80
2018-02-06T18:42:29.661Z,0.70
2018-02-06T18:45:04.917Z,0.70
2018-02-06T18:47:38.739Z,0.70
2018-02-06T18:50:13.557Z,0.70
2018-02-06T18:52:47.868Z,0.70
2018-02-06T18:55:21.889Z,0.60
2018-02-06T18:57:56.908Z,0.50
2018-02-06T19:00:30.600Z,0.60
2018-02-06T19:03:04.858Z,0.60
2018-02-06T19:05:40.075Z,0.60
2018-02-06T19:08:15.085Z,0.60
2018-02-06T19:10:48.694Z,0.60
2018-02-06T19:13:23.547Z,0.50
2018-02-06T19:15:57.636Z,0.50
2018-02-06T19:18:32.454Z,0.60
2018-02-06T19:21:06.855Z,0.50
2018-02-06T19:23:42.324Z,0.40
2018-02-06T19:26:16.536Z,0.40
2018-02-06T19:28:50.440Z,0.40
2018-02-06T19:31:25.122Z,0.40
2018-02-06T19:33:58.976Z,0.40
2018-02-06T19:36:33.782Z,0.40
2018-02-06T19:39:08.632Z,0.40
2018-02-06T19:41:42.865Z,0.30
2018-02-06T19:44:16.671Z,0.30
2018-02-06T19:46:50.647Z,0.40
2018-02-06T19:49:24.516Z,0.40
2018-02-06T19:51:58.588Z,0.30
2018-02-06T19:54:32.909Z,0.30
2018-02-06T19:57:07.830Z,0.40
2018-02-06T20:12:49.814Z,0.20
2018-02-06T20:15:24.527Z,0.10
2018-02-06T20:17:59.142Z,0.10
2018-02-06T20:20:33.184Z,0.10
2018-02-06T20:23:07.161Z,0.10
2018-02-06T20:25:42.095Z,0.00
2018-02-06T20:28:17.169Z,0.10
2018-02-06T20:30:50.827Z,0.10
2018-02-06T20:33:25.994Z,-0.10
2018-02-06T20:36:00.590Z,0.00
2018-02-06T20:38:35.520Z,-0.10
2018-02-06T20:41:09.333Z,-0.10
2018-02-06T20:43:44.266Z,-0.10
2018-02-06T20:46:18.779Z,-0.10
2018-02-06T20:48:53.935Z,-0.20
2018-02-06T20:51:29.410Z,-0.20
2018-02-06T20:54:04.615Z,-0.20
2018-02-06T20:56:39.426Z,-0.30
2018-02-06T20:59:15.549Z,-0.30
2018-02-06T21:01:50.125Z,-0.40
2018-02-06T21:04:26.144Z,-0.50
2018-02-06T21:07:00.179Z,-0.40
2018-02-06T21:09:35.026Z,-0.40
2018-02-06T21:12:09.826Z,-0.40
2018-02-06T21:14:44.335Z,-0.40
2018-02-06T21:17:18.319Z,-0.30
2018-02-06T21:19:53.175Z,-0.40
2018-02-06T21:22:27.991Z,-0.40
2018-02-06T21:25:03.898Z,-0.50
2018-02-06T21:27:39.239Z,-0.50
2018-02-06T21:30:13.639Z,-0.50
2018-02-06T21:32:48.363Z,-0.70
2018-02-06T21:35:25.716Z,-0.70
2018-02-06T21:38:00.587Z,-0.70
2018-02-06T21:40:35.785Z,-0.90
2018-02-06T21:43:10.244Z,-0.90
2018-02-06T21:45:44.651Z,-0.90
2018-02-06T21:48:19.303Z,-0.90
2018-02-06T21:50:55.458Z,-1.00
2018-02-06T21:53:31.221Z,-1.00
2018-02-06T21:56:06.153Z,-1.10
2018-02-06T21:58:40.944Z,-1.20
2018-02-06T22:01:14.925Z,-1.30
2018-02-06T22:03:49.196Z,-1.20
2018-02-06T22:06:23.304Z,-1.20
2018-02-06T22:08:58.227Z,-1.30
2018-02-06T22:11:32.116Z,-1.30
2018-02-06T22:14:07.278Z,-1.40
2018-02-06T22:16:41.252Z,-1.40
2018-02-06T22:19:16.967Z,-1.50
2018-02-06T22:21:50.916Z,-1.50
2018-02-06T22:24:25.121Z,-1.50
2018-02-06T22:27:00.059Z,-1.50
2018-02-06T22:32:10.459Z,-1.70
2018-02-06T22:34:44.957Z,-1.70
2018-02-06T22:37:19.067Z,-1.80
2018-02-06T22:39:53.108Z,-1.80
2018-02-06T22:42:27.628Z,-1.80
2018-02-06T22:45:02.247Z,-1.90
2018-02-06T22:47:37.125Z,-1.90
2018-02-06T22:50:12.441Z,-2.00
2018-02-06T22:52:47.835Z,-2.00
2018-02-06T22:55:22.208Z,-2.00
2018-02-06T22:57:56.090Z,-2.00
2018-02-06T23:00:31.166Z,-2.00
2018-02-06T23:03:05.806Z,-2.00
2018-02-06T23:05:40.446Z,-2.00
2018-02-06T23:08:14.964Z,-2.00
2018-02-06T23:10:49.076Z,-2.00
2018-02-06T23:13:24.835Z,-2.20
2018-02-06T23:15:59.758Z,-2.30
2018-02-06T23:18:34.716Z,-2.20
2018-02-06T23:21:10.264Z,-2.30
2018-02-06T23:23:45.186Z,-2.10
2018-02-06T23:26:19.015Z,-2.20
2018-02-06T23:28:53.113Z,-2.00
2018-02-06T23:31:27.906Z,-1.80
2018-02-06T23:34:01.609Z,-1.90
2018-02-06T23:36:35.331Z,-2.00
2018-02-06T23:39:09.873Z,-2.10
2018-02-06T23:41:44.069Z,-2.10
2018-02-06T23:44:17.862Z,-2.00
2018-02-06T23:46:52.389Z,-2.20
2018-02-06T23:49:27.500Z,-2.20
2018-02-06T23:52:02.155Z,-2.10
2018-02-06T23:54:35.758Z,-2.10
2018-02-06T23:57:09.739Z,-2.00
2018-02-06T23:59:44.177Z,-2.10
